Flight Track Log - Related Links

Times and Time Zones

All times are in EDT time to prevent confusion due to time zone crossing. See the UAL4695 flight status page for this flight to view local times or setup timezone preferences in your user account.

Time Position Orientation Groundspeed Altitude Reporting Facility
EDT Latitude Longitude Course Direction KTS MPH feet Rate Location/Type
Mon 09:52:00 PM 41.3229 -73.4772 37° Northeast  Level FlightAware Approximate
Mon 09:53:00 PM 41.3756 -73.4159 45° Northeast  Level FlightAware Approximate
Mon 09:54:00 PM 41.4284 -73.3549 37° Northeast  Level FlightAware Approximate
Mon 09:55:00 PM 41.4789 -73.2939 21° North  Level FlightAware Approximate
Mon 09:56:00 PM 41.5265 -73.2305 56° Northeast  Level FlightAware Approximate
Mon 09:57:00 PM 41.5768 -73.1660 41° Northeast  Level FlightAware Approximate
Mon 09:58:00 PM 41.6296 -73.1043 41° Northeast  Level FlightAware Approximate
Mon 09:59:00 PM 41.6976 -73.1071 340° North  Level FlightAware Approximate
Mon 10:00:00 PM 41.7661 -73.1237 354° North  Level FlightAware Approximate
Mon 10:01:00 PM 41.8358 -73.1336 354° North  Level FlightAware Approximate
Mon 10:02:00 PM 41.9055 -73.1436 354° North  Level FlightAware Approximate
Mon 10:03:00 PM 41.9752 -73.1535 354° North  Level FlightAware Approximate
Mon 10:04:00 PM 42.0449 -73.1636 354° North  Level FlightAware Approximate
Mon 10:05:00 PM 42.1144 -73.1761 352° North  Level FlightAware Approximate
Mon 10:06:00 PM 42.1838 -73.1899 352° North  Level FlightAware Approximate
Mon 10:07:00 PM 42.2531 -73.2038 352° North  Level FlightAware Approximate
Mon 10:08:00 PM 42.3225 -73.2176 352° North  Level FlightAware Approximate
Mon 10:09:00 PM 42.3918 -73.2315 352° North  Level FlightAware Approximate
Mon 10:10:00 PM 42.4612 -73.2454 352° North  Level FlightAware Approximate
Mon 10:11:00 PM 42.5305 -73.2594 352° North  Level FlightAware Approximate
Mon 10:12:00 PM 42.5805 -73.2251 66° East  Level FlightAware Approximate
Mon 10:13:00 PM 42.6023 -73.1347 73° East  Level FlightAware Approximate
Mon 10:14:00 PM 42.6233 -73.0438 73° East  Level FlightAware Approximate
Mon 10:15:00 PM 42.6371 -72.9514 71° East  Level FlightAware Approximate
Mon 10:16:00 PM 42.6597 -72.8612 71° East  Level FlightAware Approximate
Mon 10:17:00 PM 42.6815 -72.7706 72° East  Level FlightAware Approximate
Mon 10:18:00 PM 42.7028 -72.6797 72° East  Level FlightAware Approximate
Mon 10:19:00 PM 42.7240 -72.5888 72° East  Level FlightAware Approximate
Mon 10:20:00 PM 42.7452 -72.4978 72° East  Level FlightAware Approximate
Mon 10:21:00 PM 42.7664 -72.4068 72° East  Level FlightAware Approximate
Mon 10:22:00 PM 42.7833 -72.3148 90° East  Level FlightAware Approximate
Mon 10:23:00 PM 42.7892 -72.2198 83° East  Level FlightAware Approximate
Mon 10:24:00 PM 42.7977 -72.1249 83° East  Level FlightAware Approximate
Mon 10:25:00 PM 42.8064 -72.0301 83° East  Level FlightAware Approximate
Mon 10:26:00 PM 42.8150 -71.9353 83° East  Level FlightAware Approximate
Mon 10:27:00 PM 42.8167 -71.8399 90° East  Level FlightAware Approximate
Mon 10:28:00 PM 42.8251 -71.7455 78° East  Level FlightAware Approximate
Mon 10:29:00 PM 42.8395 -71.6519 78° East  Level FlightAware Approximate
Mon 10:30:00 PM 42.8500 -71.5578 90° East  Level FlightAware Approximate
Mon 10:31:00 PM 42.8507 -71.4623 77° East  Level FlightAware Approximate
Mon 10:32:00 PM 42.8663 -71.3690 77° East  Level FlightAware Approximate
Mon 10:33:00 PM 42.9156 -71.4319 316° Northwest  Level FlightAware Approximate
Mon 10:34:00 PM 42.9167 -71.4333 316° Northwest  Level FlightAware Approximate
Mon 10:35:00 PM 42.9328 -71.4358 316° Northwest  Level Estimated
Mon 10:36:00 PM 42.9328 -71.4358 316° Northwest  Level Estimated
Mon 10:37:00 PM 42.9328 -71.4358 316° Northwest  Level Estimated
Mon 10:38:00 PM 42.9328 -71.4358 316° Northwest  Level Estimated
Mon 10:39:00 PM 42.9328 -71.4358 316° Northwest  Level Estimated
Mon 10:40:00 PM 42.9328 -71.4358 316° Northwest  Level Estimated
Mon 10:41:00 PM 42.9328 -71.4358 316° Northwest  Level Estimated
Mon 10:42:00 PM 42.9328 -71.4358 316° Northwest  Level Estimated
Mon 10:43:00 PM 42.9328 -71.4358 316° Northwest  Level Estimated
Mon 10:44:00 PM 42.9328 -71.4358 316° Northwest  Level Estimated
Mon 10:45:00 PM 42.9328 -71.4358 316° Northwest  Level Estimated
Mon 10:46:00 PM 42.9328 -71.4358 316° Northwest  Level Estimated
Mon 10:47:00 PM 42.9328 -71.4358 316° Northwest  Level Estimated
Mon 10:48:00 PM 42.9328 -71.4358 316° Northwest  Level Estimated
Mon 10:49:00 PM 42.9328 -71.4358 316° Northwest  Level Estimated

Login

Don't have an account? Register now (free) for customized features, flight alerts, and more!